Time;durP1;ratioP1;P1;durP2;ratioP2;P2;SDS_P1;SDS_P2;PMS_P1;PMS_P2;Temp;Humidity;BMP_temperature;BMP_pressure;BME280_temperature;BME280_humidity;BME280_pressure;Samples;Min_cycle;Max_cycle;Signal;HPM_P1;HPM_P2
2023/06/04 00:01:27;;;;;;;5.45;4.45;;;;;;;-144.30;67.74;85050.53;5134216;27;20677;-58
2023/06/04 00:03:54;;;;;;;4.82;4.43;;;;;;;-144.30;67.28;85006.81;5134498;27;20268;-58
2023/06/04 00:06:21;;;;;;;5.88;5.07;;;;;;;-144.30;67.50;84816.00;5134951;27;20229;-58
2023/06/04 00:08:48;;;;;;;7.50;5.05;;;;;;;-144.30;67.35;85030.66;5134712;27;20194;-58
2023/06/04 00:11:14;;;;;;;5.70;4.57;;;;;;;-144.30;67.64;85040.59;5133865;27;20651;-59
2023/06/04 00:13:41;;;;;;;8.05;4.40;;;;;;;-144.30;68.32;85094.28;5134232;27;20685;-59
2023/06/04 00:16:10;;;;;;;6.03;4.80;;;;;;;-144.30;68.61;85100.25;5134154;27;20217;-58
2023/06/04 00:18:36;;;;;;;5.20;4.70;;;;;;;-144.30;68.79;85102.22;5134043;27;20314;-59
2023/06/04 00:21:03;;;;;;;5.40;4.95;;;;;;;-144.30;69.07;85062.47;5134107;27;20224;-57
2023/06/04 00:23:30;;;;;;;9.10;5.40;;;;;;;-144.30;68.86;85090.31;5133726;27;20194;-58
2023/06/04 00:25:57;;;;;;;5.43;4.68;;;;;;;-144.30;69.18;85070.44;5133842;27;20220;-57
2023/06/04 00:28:25;;;;;;;8.15;4.70;;;;;;;-144.30;69.51;85074.41;5133880;27;20202;-58
2023/06/04 00:30:52;;;;;;;7.05;4.97;;;;;;;-144.30;69.95;85060.50;5133906;27;20190;-58
2023/06/04 00:33:20;;;;;;;5.88;5.30;;;;;;;-144.30;70.08;85048.56;5133839;27;20216;-59
2023/06/04 00:35:47;;;;;;;5.30;4.88;;;;;;;-144.30;70.26;85054.53;5133588;27;20200;-57
2023/06/04 00:38:14;;;;;;;5.05;4.50;;;;;;;-144.30;71.30;85066.44;5133367;27;20204;-58
2023/06/04 00:40:41;;;;;;;7.38;4.68;;;;;;;-144.30;71.71;85058.50;5133361;27;20198;-58
2023/06/04 00:43:08;;;;;;;6.85;5.05;;;;;;;-144.30;72.37;85106.22;5134559;27;20689;-59
2023/06/04 00:45:35;;;;;;;4.82;4.40;;;;;;;-144.30;72.74;85120.13;5133981;27;20202;-60
2023/06/04 00:48:02;;;;;;;8.45;5.07;;;;;;;-144.30;72.95;85122.09;5133625;27;20237;-60
2023/06/04 00:50:33;;;;;;;5.00;4.70;;;;;;;-144.30;72.84;85088.31;5133879;27;20667;-59
2023/06/04 00:53:00;;;;;;;5.40;5.00;;;;;;;-144.30;73.05;85028.69;5133696;27;20555;-60
2023/06/04 00:55:27;;;;;;;7.25;5.03;;;;;;;-144.30;73.06;85100.25;5133721;27;20694;-59
2023/06/04 00:57:54;;;;;;;5.55;5.05;;;;;;;-144.30;73.26;85134.03;5133662;27;20190;-58
2023/06/04 01:00:22;;;;;;;7.72;5.03;;;;;;;-144.30;73.82;85094.28;5133749;27;20194;-60
2023/06/04 01:02:53;;;;;;;11.23;5.30;;;;;;;-144.30;73.35;85110.19;5133419;27;20282;-59
2023/06/04 01:05:36;;;;;;;5.90;4.97;;;;;;;-144.30;73.46;85126.09;5133276;27;20230;-58
2023/06/04 01:08:08;;;;;;;5.97;5.40;;;;;;;-144.30;73.72;85074.41;5133623;27;20243;-59
2023/06/04 01:10:35;;;;;;;5.57;5.10;;;;;;;-144.30;73.78;85104.22;5133398;27;20782;-59
2023/06/04 01:13:02;;;;;;;19.55;5.38;;;;;;;-144.30;73.61;85102.22;5133012;27;20594;-59
2023/06/04 01:15:29;;;;;;;5.40;4.90;;;;;;;-144.30;73.94;85074.41;5132781;27;20231;-58
2023/06/04 01:18:02;;;;;;;6.38;4.95;;;;;;;-144.30;74.08;85106.22;5133048;27;20198;-59
2023/06/04 01:20:35;;;;;;;5.88;5.00;;;;;;;-144.30;73.88;85122.09;5132968;27;20197;-60
2023/06/04 01:23:33;;;;;;;5.85;5.35;;;;;;;-144.30;73.88;85100.25;5132950;27;20202;-59
2023/06/04 01:26:02;;;;;;;5.20;4.45;;;;;;;-144.30;73.79;85364.63;5132978;27;20285;-58
2023/06/04 01:28:30;;;;;;;6.15;5.65;;;;;;;-144.30;73.54;85114.16;5133000;27;20200;-60
2023/06/04 01:30:59;;;;;;;5.72;5.18;;;;;;;-144.30;73.51;85096.25;5132687;27;20197;-59
2023/06/04 01:33:26;;;;;;;8.32;5.25;;;;;;;-144.30;73.24;85112.16;5132822;27;20189;-60
2023/06/04 01:35:53;;;;;;;5.60;5.20;;;;;;;-144.30;73.21;85118.13;5132843;27;20226;-59
2023/06/04 01:38:20;;;;;;;5.60;5.10;;;;;;;-144.30;73.68;85090.31;5132889;27;20196;-60
2023/06/04 01:40:50;;;;;;;6.07;5.47;;;;;;;-144.30;73.65;85122.09;5132672;27;20399;-59
2023/06/04 01:43:17;;;;;;;5.97;5.03;;;;;;;-144.30;74.43;85143.97;5132771;27;20197;-59
2023/06/04 01:45:44;;;;;;;6.15;5.65;;;;;;;-144.30;74.50;85104.22;5132383;27;20200;-59
2023/06/04 01:48:11;;;;;;;5.03;4.53;;;;;;;-144.30;74.57;85237.41;5132220;27;20316;-58
2023/06/04 01:50:38;;;;;;;5.05;4.63;;;;;;;-144.30;74.79;85106.22;5132354;27;20644;-57
2023/06/04 01:53:05;;;;;;;5.32;4.93;;;;;;;-144.30;74.53;85102.22;5132176;27;20656;-59
2023/06/04 01:55:33;;;;;;;5.25;4.85;;;;;;;-144.30;74.18;85130.06;5131925;27;20599;-59
2023/06/04 01:58:01;;;;;;;5.75;5.10;;;;;;;-144.30;73.95;85116.16;5131975;27;20198;-58
2023/06/04 02:00:28;;;;;;;6.22;5.20;;;;;;;-144.30;73.68;85102.22;5132140;27;20194;-60
2023/06/04 02:02:56;;;;;;;7.07;5.18;;;;;;;-144.30;73.65;85149.94;5132222;27;20228;-59
2023/06/04 02:05:24;;;;;;;5.50;5.00;;;;;;;-144.30;73.92;85145.97;5132497;27;20220;-59
2023/06/04 02:07:51;;;;;;;5.72;5.28;;;;;;;-144.30;74.15;85120.13;5132252;27;20198;-60
2023/06/04 02:10:20;;;;;;;7.15;6.65;;;;;;;-144.30;74.33;85149.94;5132363;27;20193;-58
2023/06/04 02:12:57;;;;;;;6.70;6.07;;;;;;;-144.30;74.84;85102.22;5132180;27;20190;-59
2023/06/04 02:15:27;;;;;;;8.25;5.43;;;;;;;-144.30;75.01;85136.03;5132330;27;20194;-59
2023/06/04 02:17:59;;;;;;;5.57;5.07;;;;;;;-144.30;74.74;85132.03;5131950;27;20194;-59
2023/06/04 02:20:26;;;;;;;6.10;5.43;;;;;;;-144.30;74.07;85106.22;5131996;27;20221;-58
2023/06/04 02:22:55;;;;;;;5.88;5.30;;;;;;;-144.30;74.24;85104.22;5132061;27;20232;-60
2023/06/04 02:25:22;;;;;;;5.63;5.15;;;;;;;-144.30;74.62;85114.16;5131832;27;20679;-58
2023/06/04 02:27:49;;;;;;;5.25;4.88;;;;;;;-144.30;74.48;85102.22;5132150;27;20573;-59
2023/06/04 02:30:16;;;;;;;5.93;5.40;;;;;;;-144.30;74.40;85122.09;5131721;27;20200;-59
2023/06/04 02:32:45;;;;;;;6.13;5.72;;;;;;;-144.30;74.60;85090.31;5131505;27;20198;-57
2023/06/04 02:35:12;;;;;;;5.50;5.20;;;;;;;-144.30;74.41;85102.22;5131638;27;20239;-57
2023/06/04 02:37:39;;;;;;;6.95;5.38;;;;;;;-144.30;74.03;85092.28;5131316;27;20190;-58
2023/06/04 02:40:07;;;;;;;8.20;4.63;;;;;;;-144.30;73.90;85126.09;5131753;27;20590;-59
2023/06/04 02:42:34;;;;;;;6.45;5.72;;;;;;;-144.30;73.82;85141.97;5131509;27;20239;-59
2023/06/04 02:45:00;;;;;;;6.00;5.50;;;;;;;-144.30;73.90;85122.09;5131887;27;20277;-59
2023/06/04 02:47:28;;;;;;;6.15;5.45;;;;;;;-144.30;73.81;85118.13;5131295;27;20226;-57
2023/06/04 02:49:56;;;;;;;10.88;7.07;;;;;;;-144.30;74.31;85134.03;5131492;27;20579;-58
2023/06/04 02:52:25;;;;;;;9.60;7.10;;;;;;;-144.30;74.57;85145.97;5131073;27;20403;-58
2023/06/04 02:54:52;;;;;;;8.95;5.85;;;;;;;-144.30;74.53;85134.03;5131293;27;20200;-57
2023/06/04 02:57:19;;;;;;;5.35;4.95;;;;;;;-144.30;74.43;85138.00;5131208;27;20285;-59
2023/06/04 02:59:46;;;;;;;6.35;5.95;;;;;;;-144.30;74.55;85138.00;5131225;27;20193;-59
2023/06/04 03:02:14;;;;;;;5.75;5.35;;;;;;;-144.30;74.57;85138.00;5131082;27;20214;-59
2023/06/04 03:04:42;;;;;;;6.05;5.57;;;;;;;-144.30;74.38;85134.03;5131229;27;20194;-59
2023/06/04 03:07:11;;;;;;;6.47;5.93;;;;;;;-144.30;74.17;85100.25;5131177;27;20285;-58
2023/06/04 03:09:38;;;;;;;5.75;5.35;;;;;;;-144.30;74.36;85134.03;5131133;27;20240;-58
2023/06/04 03:12:06;;;;;;;5.32;5.03;;;;;;;-144.30;74.41;85126.09;5131235;27;20559;-58
2023/06/04 03:14:33;;;;;;;5.70;4.85;;;;;;;-144.30;74.77;85138.00;5130936;27;20216;-57
2023/06/04 03:17:07;;;;;;;7.00;4.85;;;;;;;-144.30;74.68;85124.09;5131090;27;20194;-58
2023/06/04 03:19:36;;;;;;;7.47;5.63;;;;;;;-144.30;74.50;85094.28;5131064;27;20708;-57
2023/06/04 03:22:06;;;;;;;5.53;5.00;;;;;;;-144.30;74.19;85096.25;5130886;27;20221;-57
2023/06/04 03:24:36;;;;;;;5.45;5.05;;;;;;;-144.30;74.03;85110.19;5131075;28;20204;-58
2023/06/04 03:27:04;;;;;;;5.22;4.93;;;;;;;-144.30;74.19;85098.25;5131086;27;20441;-60
2023/06/04 03:29:31;;;;;;;5.75;5.20;;;;;;;-144.30;74.48;85122.09;5131053;27;20198;-60
2023/06/04 03:31:58;;;;;;;5.93;5.43;;;;;;;-144.30;74.66;85134.03;5131069;27;20201;-59
2023/06/04 03:34:25;;;;;;;5.90;5.50;;;;;;;-144.30;74.84;85100.25;5131833;27;20575;-59
2023/06/04 03:36:52;;;;;;;8.10;5.45;;;;;;;-144.30;75.07;85060.50;5135243;27;20257;-59
2023/06/04 03:39:19;;;;;;;7.68;5.75;;;;;;;-144.30;74.60;85078.38;5135269;27;20636;-59
2023/06/04 03:41:48;;;;;;;5.63;5.18;;;;;;;-144.30;74.72;85082.34;5134848;27;20706;-58
2023/06/04 03:44:15;;;;;;;5.97;5.38;;;;;;;-144.30;74.33;84967.06;5134993;27;20200;-58
2023/06/04 03:46:43;;;;;;;8.52;5.88;;;;;;;-144.30;74.07;85134.03;5134612;27;20226;-59
2023/06/04 03:49:10;;;;;;;5.63;5.13;;;;;;;-144.30;74.14;85090.31;5134931;27;20194;-59
2023/06/04 03:51:37;;;;;;;5.90;5.22;;;;;;;-144.30;73.92;85062.47;5135249;27;20655;-59
2023/06/04 03:54:04;;;;;;;5.22;4.82;;;;;;;-144.30;73.46;85092.28;5135271;27;20205;-59
2023/06/04 03:56:31;;;;;;;5.55;5.15;;;;;;;-144.30;73.36;85078.38;5135084;27;20196;-59
2023/06/04 03:59:00;;;;;;;5.45;5.07;;;;;;;-144.30;72.51;85082.34;5135222;27;20570;-59
2023/06/04 04:01:28;;;;;;;5.55;5.05;;;;;;;-144.30;71.99;85078.38;5135120;27;20197;-59
2023/06/04 04:03:55;;;;;;;5.38;5.07;;;;;;;-144.30;71.65;85018.75;5134873;27;20190;-59
2023/06/04 04:06:22;;;;;;;5.78;5.22;;;;;;;-144.30;72.13;85058.50;5134703;27;20272;-58
2023/06/04 04:08:49;;;;;;;7.47;5.90;;;;;;;-144.30;72.12;85046.56;5135017;27;20220;-59
2023/06/04 04:11:17;;;;;;;7.43;5.50;;;;;;;-144.30;71.74;85060.50;5135056;27;20578;-58
2023/06/04 04:13:45;;;;;;;6.72;5.95;;;;;;;-144.30;71.52;85042.59;5135122;27;20577;-59
2023/06/04 04:16:14;;;;;;;6.18;5.68;;;;;;;-144.30;71.47;85062.47;5135096;27;20200;-60
2023/06/04 04:18:43;;;;;;;7.13;5.43;;;;;;;-144.30;70.74;85052.53;5135031;27;20229;-60
2023/06/04 04:21:10;;;;;;;5.88;5.38;;;;;;;-144.30;70.37;85030.66;5134884;27;20201;-60
2023/06/04 04:23:39;;;;;;;6.63;5.55;;;;;;;-144.30;70.70;85046.56;5135046;27;20741;-60
2023/06/04 04:26:06;;;;;;;6.57;6.15;;;;;;;-144.30;70.87;85054.53;5134884;27;20194;-60
2023/06/04 04:28:34;;;;;;;10.18;7.10;;;;;;;-144.30;70.53;85034.66;5134796;27;20193;-59
2023/06/04 04:31:02;;;;;;;6.35;5.00;;;;;;;-144.30;70.65;85030.66;5134907;27;20190;-60
2023/06/04 04:33:39;;;;;;;6.95;5.43;;;;;;;-144.30;70.85;85076.38;5134039;27;20194;-60
2023/06/04 04:36:08;;;;;;;7.82;5.13;;;;;;;-144.30;70.41;85020.72;5134136;27;20197;-60
2023/06/04 04:38:35;;;;;;;6.25;5.53;;;;;;;-144.30;70.46;85054.53;5133917;27;20208;-60
2023/06/04 04:41:02;;;;;;;6.47;5.88;;;;;;;-144.30;70.41;85066.44;5133666;27;20216;-59
2023/06/04 04:43:31;;;;;;;6.30;5.80;;;;;;;-144.30;70.58;85094.28;5132156;27;20218;-58
2023/06/04 04:45:58;;;;;;;6.25;5.78;;;;;;;-144.30;70.73;85000.84;5128449;27;20585;-60
2023/06/04 04:48:26;;;;;;;7.72;5.80;;;;;;;-144.30;70.20;84994.91;5133061;27;20202;-60
2023/06/04 04:50:54;;;;;;;6.10;5.60;;;;;;;-144.30;69.91;85042.59;5133844;27;20671;-60
2023/06/04 04:53:21;;;;;;;6.63;6.13;;;;;;;-144.30;69.71;85046.56;5133352;27;20193;-59
2023/06/04 04:55:48;;;;;;;6.47;5.97;;;;;;;-144.30;69.71;85040.59;5133235;27;20201;-59
2023/06/04 04:58:16;;;;;;;7.40;5.80;;;;;;;-144.30;69.63;85026.69;5133380;27;20611;-59
2023/06/04 05:00:43;;;;;;;5.82;5.43;;;;;;;-144.30;69.25;84994.91;5133107;27;20193;-59
2023/06/04 05:03:10;;;;;;;7.32;6.57;;;;;;;-144.30;69.00;84986.94;5133266;27;20225;-59
2023/06/04 05:05:37;;;;;;;6.68;6.15;;;;;;;-144.30;68.80;84965.06;5133168;27;20276;-59
2023/06/04 05:08:05;;;;;;;6.50;6.10;;;;;;;-144.30;68.50;84905.44;5133389;27;20289;-59
2023/06/04 05:10:32;;;;;;;7.32;6.20;;;;;;;-144.30;67.65;84945.19;5133050;27;20194;-58
2023/06/04 05:13:00;;;;;;;7.03;6.32;;;;;;;-144.30;66.75;84955.13;5133375;27;20190;-60
2023/06/04 05:15:27;;;;;;;8.73;6.47;;;;;;;-144.30;66.24;84935.25;5133415;27;20194;-60
2023/06/04 05:17:56;;;;;;;6.97;6.38;;;;;;;-144.30;66.23;84877.63;5133741;27;20198;-60
2023/06/04 05:20:23;;;;;;;6.80;6.20;;;;;;;-144.30;66.08;84921.34;5132382;27;20209;-59
2023/06/04 05:22:50;;;;;;;9.55;6.95;;;;;;;-144.30;66.60;84921.34;5133233;27;20214;-59
2023/06/04 05:25:18;;;;;;;10.43;6.45;;;;;;;-144.30;66.54;84899.47;5133048;27;20200;-59
2023/06/04 05:27:48;;;;;;;8.85;6.40;;;;;;;-144.30;66.15;84911.41;5133152;27;20230;-59
2023/06/04 05:30:16;;;;;;;7.03;6.53;;;;;;;-144.30;66.01;84819.97;5133564;27;20208;-59
2023/06/04 05:32:43;;;;;;;7.05;6.43;;;;;;;-144.30;66.32;84907.44;5130462;27;20619;-59
2023/06/04 05:35:10;;;;;;;10.57;7.15;;;;;;;-144.30;66.11;84911.41;5132809;27;20217;-59
2023/06/04 05:37:40;;;;;;;13.65;10.10;;;;;;;-144.30;66.28;84823.94;5132398;27;20220;-59
2023/06/04 05:40:08;;;;;;;8.13;7.38;;;;;;;-144.30;65.57;84859.72;5132610;27;20236;-61
2023/06/04 05:42:37;;;;;;;7.75;7.03;;;;;;;-144.30;65.23;84865.69;5131993;27;20245;-58
2023/06/04 05:45:05;;;;;;;7.05;6.35;;;;;;;-144.30;64.88;84843.84;5129214;27;20218;-57
2023/06/04 05:47:32;;;;;;;11.57;6.95;;;;;;;-144.30;64.50;84861.72;5130896;27;20267;-58
2023/06/04 05:49:59;;;;;;;9.68;7.18;;;;;;;-144.30;64.97;84849.78;5131404;27;20221;-58
2023/06/04 05:52:26;;;;;;;10.60;6.90;;;;;;;-144.30;64.89;84857.75;5130766;27;20587;-59
2023/06/04 05:54:53;;;;;;;11.30;7.32;;;;;;;-144.30;65.08;84865.69;5130605;27;20213;-59
2023/06/04 05:57:21;;;;;;;7.47;6.88;;;;;;;-144.30;64.79;84823.94;5130614;27;20635;-57
2023/06/04 05:59:49;;;;;;;7.85;7.10;;;;;;;-144.30;64.82;84827.94;5130311;27;20221;-60
2023/06/04 06:02:16;;;;;;;7.70;6.60;;;;;;;-144.30;64.79;84833.88;5130924;27;20213;-58
2023/06/04 06:04:43;;;;;;;7.80;7.07;;;;;;;-144.30;64.51;84784.19;5129098;27;20642;-59
2023/06/04 06:07:11;;;;;;;7.82;7.13;;;;;;;-144.30;64.09;84788.19;5130694;27;20217;-58
2023/06/04 06:09:37;;;;;;;8.32;7.53;;;;;;;-144.30;63.25;84816.00;5130509;27;20214;-58
2023/06/04 06:12:05;;;;;;;8.15;7.00;;;;;;;-144.30;62.92;84790.16;5131334;27;20216;-58
2023/06/04 06:14:32;;;;;;;7.32;6.82;;;;;;;-144.30;62.96;84627.19;5132002;27;20222;-59
2023/06/04 06:17:02;;;;;;;9.55;8.52;;;;;;;-144.30;62.29;84746.44;5131489;27;20214;-60
2023/06/04 06:19:30;;;;;;;8.77;7.50;;;;;;;-144.30;62.53;84736.50;5131778;27;20699;-60
2023/06/04 06:21:58;;;;;;;9.23;8.30;;;;;;;-144.30;61.94;84716.63;5131670;27;20244;-60
2023/06/04 06:24:25;;;;;;;8.32;7.63;;;;;;;-144.30;61.96;84708.66;5128993;27;20236;-60
2023/06/04 06:26:52;;;;;;;8.65;8.05;;;;;;;-144.30;62.35;84706.69;5131289;27;20619;-60
2023/06/04 06:29:19;;;;;;;8.57;7.57;;;;;;;-144.30;62.08;84724.56;5130999;27;20640;-59
2023/06/04 06:31:46;;;;;;;9.60;8.30;;;;;;;-144.30;62.37;84704.69;5131591;27;20217;-58
2023/06/04 06:34:14;;;;;;;9.25;8.27;;;;;;;-144.30;61.52;84680.84;5130975;27;20611;-59
2023/06/04 06:36:41;;;;;;;10.18;8.15;;;;;;;-144.30;61.36;84736.50;5128730;27;20222;-59
2023/06/04 06:39:08;;;;;;;9.38;7.90;;;;;;;-144.30;61.86;84700.72;5130456;27;20222;-59
2023/06/04 06:41:35;;;;;;;7.82;7.15;;;;;;;-144.30;62.06;84720.59;5130534;27;20230;-59
2023/06/04 06:44:02;;;;;;;10.13;8.50;;;;;;;-144.30;62.03;84692.78;5130224;27;20225;-60
2023/06/04 06:46:29;;;;;;;9.75;8.38;;;;;;;-144.30;62.66;84692.78;5129426;27;20266;-59
2023/06/04 06:48:56;;;;;;;10.02;9.07;;;;;;;-144.30;62.93;84740.47;5129508;27;20232;-59
2023/06/04 06:51:24;;;;;;;17.08;8.88;;;;;;;-144.30;62.89;84728.56;5130167;27;20224;-58
2023/06/04 06:53:51;;;;;;;12.30;9.75;;;;;;;-144.30;61.88;84734.50;5130141;27;20209;-58
2023/06/04 06:56:19;;;;;;;9.93;9.00;;;;;;;-144.30;62.25;84700.72;5130242;27;20266;-59
2023/06/04 06:58:46;;;;;;;10.70;9.60;;;;;;;-144.30;62.37;84700.72;5130099;27;20214;-58
2023/06/04 07:01:13;;;;;;;10.27;9.30;;;;;;;-144.30;62.42;84724.56;5130826;27;20218;-59
2023/06/04 07:03:40;;;;;;;11.40;9.48;;;;;;;-144.30;61.81;84672.91;5130381;27;20230;-59
2023/06/04 07:06:07;;;;;;;10.75;9.70;;;;;;;-144.30;62.72;84768.31;5130115;27;20305;-58
2023/06/04 07:08:36;;;;;;;12.77;10.02;;;;;;;-144.30;63.55;84758.38;5130247;27;20711;-60
2023/06/04 07:11:04;;;;;;;9.32;8.27;;;;;;;-144.30;64.14;84744.44;5129644;27;20220;-59
2023/06/04 07:13:32;;;;;;;9.60;8.65;;;;;;;-144.30;64.36;84674.88;5129780;27;20220;-58
2023/06/04 07:15:59;;;;;;;8.55;7.68;;;;;;;-144.30;63.75;84728.56;5130499;27;20237;-57
2023/06/04 07:18:26;;;;;;;8.77;7.65;;;;;;;-144.30;63.46;84700.72;5130171;27;20663;-58
2023/06/04 07:20:53;;;;;;;7.70;7.00;;;;;;;-144.30;63.81;84716.63;5130238;27;20275;-58
2023/06/04 07:23:20;;;;;;;7.65;7.00;;;;;;;-144.30;64.40;84766.31;5130174;27;20257;-58
2023/06/04 07:25:49;;;;;;;8.38;7.65;;;;;;;-144.30;65.00;84692.78;5130368;27;20213;-59
2023/06/04 07:28:15;;;;;;;7.75;7.05;;;;;;;-144.30;65.58;84762.34;5129917;27;20218;-58
2023/06/04 07:30:42;;;;;;;8.27;7.57;;;;;;;-144.30;65.77;84736.50;5130230;27;20217;-58
2023/06/04 07:33:09;;;;;;;8.20;7.38;;;;;;;-144.30;65.88;84734.50;5130402;27;20695;-58
2023/06/04 07:35:36;;;;;;;8.10;7.32;;;;;;;-144.30;65.61;84738.47;5128462;27;20218;-58
2023/06/04 07:38:03;;;;;;;8.38;7.57;;;;;;;-144.30;65.95;84708.66;5130811;27;20201;-58
2023/06/04 07:40:30;;;;;;;8.30;7.70;;;;;;;-144.30;66.50;84736.50;5130678;27;20209;-58
2023/06/04 07:42:58;;;;;;;8.88;8.18;;;;;;;-144.30;66.45;84736.50;5130816;27;20220;-59
2023/06/04 07:45:28;;;;;;;8.73;8.10;;;;;;;-144.30;67.30;84734.50;5129739;27;20727;-59
2023/06/04 07:47:55;;;;;;;9.15;8.38;;;;;;;-144.30;68.06;84768.31;5130435;27;20225;-59
2023/06/04 07:50:22;;;;;;;8.98;8.30;;;;;;;-144.30;67.79;84718.63;5130854;27;20258;-59
2023/06/04 07:52:49;;;;;;;8.98;7.95;;;;;;;-144.30;67.92;84750.41;5130528;27;20202;-58
2023/06/04 07:55:16;;;;;;;9.70;8.63;;;;;;;-144.30;68.04;84748.44;5130647;27;20194;-58
2023/06/04 07:57:43;;;;;;;9.75;8.45;;;;;;;-144.30;68.16;84736.50;5130442;27;20675;-58
2023/06/04 08:00:14;;;;;;;10.02;9.13;;;;;;;-144.30;69.13;84764.31;5130870;27;20194;-59
2023/06/04 08:02:41;;;;;;;9.93;9.05;;;;;;;-144.30;70.20;85074.41;5131070;27;20670;-59
2023/06/04 08:05:08;;;;;;;9.05;8.18;;;;;;;-144.30;70.79;84810.03;5131174;27;20201;-59
2023/06/04 08:07:35;;;;;;;10.10;8.52;;;;;;;-144.30;71.55;84829.91;5131125;27;20194;-59
2023/06/04 08:10:02;;;;;;;13.35;9.18;;;;;;;-144.30;72.49;84823.94;5130957;27;20198;-59
2023/06/04 08:12:28;;;;;;;11.15;8.68;;;;;;;-144.30;73.27;84861.72;5130758;27;20610;-58
2023/06/04 08:14:57;;;;;;;9.23;8.48;;;;;;;-144.30;74.07;84812.03;5130241;27;20571;-58
2023/06/04 08:17:25;;;;;;;12.65;8.93;;;;;;;-144.30;73.51;84845.81;5130363;27;20233;-57
2023/06/04 08:19:52;;;;;;;9.48;8.60;;;;;;;-144.30;73.02;84833.88;5130217;27;20200;-58
2023/06/04 08:22:19;;;;;;;8.60;8.00;;;;;;;-144.30;72.34;84839.84;5133957;27;20208;-59
2023/06/04 08:24:46;;;;;;;10.23;9.10;;;;;;;-144.30;72.09;84825.94;5133952;27;20232;-60
2023/06/04 08:27:13;;;;;;;9.55;8.75;;;;;;;-144.30;72.45;84788.19;5133906;27;20663;-59
2023/06/04 08:29:40;;;;;;;9.45;8.50;;;;;;;-144.30;72.89;84823.94;5133733;27;20193;-58
2023/06/04 08:32:08;;;;;;;10.15;9.25;;;;;;;-144.30;72.23;84792.16;5133820;27;20197;-63
2023/06/04 08:34:36;;;;;;;10.50;8.60;;;;;;;-144.30;70.78;84818.00;5133802;27;20199;-63
2023/06/04 08:37:03;;;;;;;9.02;8.23;;;;;;;-144.30;71.25;84812.03;5133996;27;20201;-63
2023/06/04 08:39:30;;;;;;;8.48;7.80;;;;;;;-144.30;70.41;84780.22;5133415;27;20204;-64
2023/06/04 08:42:01;;;;;;;9.43;7.03;;;;;;;-144.30;66.82;84792.16;5125221;27;20289;-64
2023/06/04 08:44:29;;;;;;;7.25;6.63;;;;;;;-144.30;66.82;84728.56;5113230;28;20605;-63
2023/06/04 08:47:03;;;;;;;9.05;7.10;;;;;;;-144.30;63.13;84684.81;5112836;27;20227;-64
2023/06/04 08:49:34;;;;;;;8.32;6.35;;;;;;;-144.30;62.26;84529.81;5113097;28;20714;-63
2023/06/04 08:52:02;;;;;;;9.77;6.35;;;;;;;-144.30;59.77;84728.56;5112987;28;20197;-64
2023/06/04 08:54:30;;;;;;;6.70;6.20;;;;;;;-144.30;62.36;84734.50;5112775;28;20273;-63
2023/06/04 08:56:58;;;;;;;8.13;7.15;;;;;;;-144.30;64.24;84696.75;5113029;28;20277;-64
2023/06/04 08:59:25;;;;;;;9.07;8.18;;;;;;;-144.30;65.88;84666.94;5112767;28;20285;-63
2023/06/04 09:01:54;;;;;;;12.13;8.00;;;;;;;-144.30;66.92;84700.72;5113058;28;20198;-63
2023/06/04 09:04:21;;;;;;;8.73;7.93;;;;;;;-144.30;67.92;84847.81;5112988;28;20221;-63
2023/06/04 09:06:49;;;;;;;8.82;7.97;;;;;;;-144.30;66.63;84684.81;5112413;27;20197;-63
2023/06/04 09:09:18;;;;;;;12.65;8.00;;;;;;;-144.30;66.34;84664.94;5133141;27;20666;-63
2023/06/04 09:11:52;;;;;;;9.70;7.93;;;;;;;-144.30;65.17;84674.88;5132617;27;20647;-57
2023/06/04 09:14:20;;;;;;;9.52;8.25;;;;;;;-144.30;64.66;84597.38;5132478;27;20267;-57
2023/06/04 09:16:48;;;;;;;7.95;7.32;;;;;;;-144.30;65.52;84637.13;5131979;27;20225;-58
2023/06/04 09:19:16;;;;;;;11.38;7.63;;;;;;;-144.30;65.35;84629.19;5129666;27;20194;-58
2023/06/04 09:21:53;;;;;;;8.10;7.47;;;;;;;-144.30;64.22;84625.19;5128584;27;20221;-57
2023/06/04 09:24:22;;;;;;;9.32;7.00;;;;;;;-144.30;61.69;84601.34;5130709;27;20229;-58
2023/06/04 09:26:49;;;;;;;7.75;7.00;;;;;;;-144.30;61.31;84613.28;5129193;27;20249;-57
2023/06/04 09:29:17;;;;;;;8.95;7.85;;;;;;;-144.30;61.06;85261.25;5131643;27;20201;-58
2023/06/04 09:31:46;;;;;;;8.63;7.85;;;;;;;-144.30;60.14;84553.66;5132171;27;20190;-57
2023/06/04 09:34:14;;;;;;;9.95;7.93;;;;;;;-144.30;60.60;84533.78;5131711;27;20193;-57
2023/06/04 09:36:41;;;;;;;9.02;8.23;;;;;;;-144.30;60.95;84517.88;5129534;27;20594;-57
2023/06/04 09:39:16;;;;;;;9.00;7.97;;;;;;;-144.30;61.01;84531.78;5131948;27;20194;-58
2023/06/04 09:41:45;;;;;;;9.25;7.80;;;;;;;-144.30;62.05;84545.69;5128986;27;20225;-57
2023/06/04 09:44:12;;;;;;;8.18;7.40;;;;;;;-144.30;61.88;84513.91;5131794;27;20216;-57
2023/06/04 09:46:39;;;;;;;7.97;7.28;;;;;;;-144.30;61.64;84569.53;5131482;27;20226;-57
2023/06/04 09:49:06;;;;;;;8.32;7.13;;;;;;;-144.30;60.02;84480.13;5132081;27;20705;-58
2023/06/04 09:51:34;;;;;;;8.15;6.53;;;;;;;-144.30;58.03;84346.97;5131887;27;20598;-57
2023/06/04 09:54:02;;;;;;;7.88;6.25;;;;;;;-144.30;56.65;84478.13;5131913;27;20674;-57
2023/06/04 09:56:29;;;;;;;5.88;5.43;;;;;;;-144.30;54.39;84474.16;5128869;27;20229;-58
2023/06/04 09:59:00;;;;;;;10.85;6.30;;;;;;;-144.30;54.81;84503.97;5131472;27;20192;-58
2023/06/04 10:01:30;;;;;;;6.00;5.43;;;;;;;-144.30;53.40;84470.19;5128876;27;20687;-58
2023/06/04 10:04:03;;;;;;;6.45;6.03;;;;;;;-144.30;53.68;84442.34;5131609;27;20660;-58
2023/06/04 10:06:33;;;;;;;7.78;6.40;;;;;;;-144.30;53.72;84408.56;5128786;27;20200;-57
2023/06/04 10:09:06;;;;;;;6.35;5.85;;;;;;;-144.30;52.80;84372.78;5131365;27;20194;-57
2023/06/04 10:11:36;;;;;;;8.05;7.10;;;;;;;-144.30;54.08;84358.88;5131294;27;20290;-58
2023/06/04 10:14:12;;;;;;;7.10;6.60;;;;;;;-144.30;54.05;84329.06;5131046;27;20190;-57
2023/06/04 10:16:41;;;;;;;9.63;6.75;;;;;;;-144.30;52.04;84333.06;5128258;27;21190;-57
2023/06/04 10:19:09;;;;;;;7.72;6.80;;;;;;;-144.30;50.64;84311.19;5128727;27;20197;-58
2023/06/04 10:21:37;;;;;;;7.07;6.43;;;;;;;-144.30;50.49;84348.94;5130770;27;20198;-58
2023/06/04 10:24:04;;;;;;;9.45;5.70;;;;;;;-144.30;47.99;84346.97;5131016;27;20214;-58
2023/06/04 10:26:34;;;;;;;6.85;4.45;;;;;;;-144.30;43.98;84362.84;5128438;27;20280;-58
2023/06/04 10:29:02;;;;;;;6.47;4.50;;;;;;;-144.30;44.53;84396.66;5131031;27;20281;-58
2023/06/04 10:31:31;;;;;;;5.55;3.80;;;;;;;-144.30;42.88;84436.38;5130763;27;20644;-65
2023/06/04 10:33:58;;;;;;;4.00;3.80;;;;;;;-144.30;43.63;84398.63;5130688;27;20562;-65
2023/06/04 10:36:26;;;;;;;5.43;5.00;;;;;;;-144.30;45.53;84416.50;5130841;27;20403;-65
2023/06/04 10:38:54;;;;;;;4.20;3.90;;;;;;;-144.30;46.62;84394.66;5128566;27;20186;-65
2023/06/04 10:41:22;;;;;;;5.30;4.90;;;;;;;-144.30;48.14;84358.88;5130711;27;20194;-65
2023/06/04 10:43:50;;;;;;;5.60;5.10;;;;;;;-144.30;48.44;84394.66;5128708;27;20293;-65
2023/06/04 10:46:18;;;;;;;6.65;5.60;;;;;;;-144.30;49.25;84378.75;5130680;27;20710;-65
2023/06/04 10:48:51;;;;;;;6.43;5.15;;;;;;;-144.30;49.17;84366.84;5130395;27;20197;-64
2023/06/04 10:51:30;;;;;;;7.43;5.35;;;;;;;-144.30;50.07;84341.00;5130809;27;20209;-65
2023/06/04 10:53:57;;;;;;;6.90;4.55;;;;;;;-144.30;45.92;84317.16;5129687;27;20702;-65
2023/06/04 10:56:28;;;;;;;4.97;4.57;;;;;;;-144.30;45.44;84354.91;5131033;27;20576;-65
2023/06/04 10:58:55;;;;;;;8.50;7.85;;;;;;;-144.30;52.80;84295.28;5130682;27;20198;-66
2023/06/04 11:01:26;;;;;;;9.60;8.43;;;;;;;-144.30;55.72;84311.19;5130494;27;20185;-65
2023/06/04 11:03:55;;;;;;;8.45;7.93;;;;;;;-144.30;55.14;84251.56;5130669;27;20194;-65
2023/06/04 11:06:26;;;;;;;9.90;9.00;;;;;;;-144.30;56.38;84303.25;5128083;27;20186;-65
2023/06/04 11:09:03;;;;;;;9.95;8.48;;;;;;;-144.30;55.16;84354.91;5130637;27;20315;-66
2023/06/04 11:11:30;;;;;;;10.23;9.32;;;;;;;-144.30;55.56;84323.13;5128897;28;20201;-65
2023/06/04 11:14:08;;;;;;;8.98;7.97;;;;;;;-144.30;54.24;84267.47;5130502;27;20583;-65
2023/06/04 11:16:35;;;;;;;9.77;8.95;;;;;;;-144.30;54.93;84339.00;5130389;27;20194;-65
2023/06/04 11:19:04;;;;;;;9.05;8.35;;;;;;;-144.30;52.43;84346.97;5130462;28;20201;-66
2023/06/04 11:21:31;;;;;;;9.82;8.50;;;;;;;-144.30;51.57;84323.13;5130127;28;20277;-66